Time;durP1;ratioP1;P1;durP2;ratioP2;P2;SDS_P1;SDS_P2;PMS_P1;PMS_P2;Temp;Humidity;BMP_temperature;BMP_pressure;BME280_temperature;BME280_humidity;BME280_pressure;Samples;Min_cycle;Max_cycle;Signal;HPM_P1;HPM_P2
2021/03/30 00:01:58;;;;;;;4.53;2.50;;;9.40;66.10;;;;;;5108068;28;27383;-62
2021/03/30 00:04:42;;;;;;;5.90;2.80;;;9.40;66.10;;;;;;5104802;28;27387;-62
2021/03/30 00:07:27;;;;;;;4.68;2.60;;;9.40;66.00;;;;;;5107838;28;27328;-62
2021/03/30 00:10:14;;;;;;;6.32;2.50;;;9.30;65.90;;;;;;5107407;28;27494;-62
2021/03/30 00:12:58;;;;;;;5.57;2.35;;;9.30;65.80;;;;;;5107636;28;27375;-62
2021/03/30 00:15:43;;;;;;;6.70;2.53;;;9.30;65.90;;;;;;5107937;28;27403;-62
2021/03/30 00:18:27;;;;;;;7.10;3.20;;;9.20;65.70;;;;;;5107572;28;27309;-62
2021/03/30 00:21:12;;;;;;;5.70;2.78;;;9.20;65.90;;;;;;5107744;28;27340;-62
2021/03/30 00:23:57;;;;;;;3.22;2.65;;;9.10;65.90;;;;;;5107456;28;27531;-60
2021/03/30 00:26:41;;;;;;;6.47;3.00;;;9.10;65.90;;;;;;5089214;28;27469;-60
2021/03/30 00:29:26;;;;;;;7.35;2.42;;;9.10;65.90;;;;;;5107413;28;27478;-60
2021/03/30 00:32:10;;;;;;;5.70;2.42;;;9.10;66.10;;;;;;5107724;28;27525;-60
2021/03/30 00:34:55;;;;;;;6.53;2.95;;;9.00;65.90;;;;;;5107579;28;27456;-59
2021/03/30 00:37:40;;;;;;;4.60;2.63;;;9.00;65.90;;;;;;5104424;28;27457;-60
2021/03/30 00:40:24;;;;;;;5.45;2.35;;;9.00;65.90;;;;;;5107165;28;27534;-60
2021/03/30 00:43:08;;;;;;;5.60;2.97;;;8.90;66.00;;;;;;5107313;28;27849;-60
2021/03/30 00:45:53;;;;;;;7.43;2.90;;;8.90;66.10;;;;;;5106266;28;27615;-60
2021/03/30 00:48:38;;;;;;;4.82;2.85;;;8.90;66.10;;;;;;5107157;28;27427;-60
2021/03/30 00:51:22;;;;;;;5.88;2.50;;;8.80;66.10;;;;;;5103814;28;27451;-59
2021/03/30 00:54:16;;;;;;;4.78;2.60;;;8.80;66.10;;;;;;5093123;28;27340;-60
2021/03/30 00:57:20;;;;;;;4.55;2.92;;;8.80;66.10;;;;;;5088415;28;27523;-60
2021/03/30 01:00:06;;;;;;;4.05;2.88;;;8.70;66.10;;;;;;5107179;28;27371;-60
2021/03/30 01:02:51;;;;;;;6.43;2.85;;;8.70;66.20;;;;;;5107199;28;27386;-60
2021/03/30 01:05:35;;;;;;;6.57;3.22;;;8.70;66.30;;;;;;5090998;28;27364;-60
2021/03/30 01:08:29;;;;;;;4.72;3.05;;;8.60;66.30;;;;;;5106731;28;27376;-60
2021/03/30 01:11:35;;;;;;;8.25;2.97;;;8.60;66.40;;;;;;5107063;28;27401;-60
2021/03/30 01:14:25;;;;;;;4.75;3.25;;;8.50;66.40;;;;;;5106994;28;27372;-60
2021/03/30 01:17:44;;;;;;;8.40;3.38;;;8.50;66.50;;;;;;5106603;28;27532;-60
2021/03/30 01:20:50;;;;;;;4.22;3.28;;;8.50;66.50;;;;;;5106671;28;27329;-60
2021/03/30 01:23:53;;;;;;;5.22;3.10;;;8.50;66.60;;;;;;5091778;28;27372;-61
2021/03/30 01:27:17;;;;;;;4.88;3.17;;;8.40;66.60;;;;;;5106387;28;26953;-61
2021/03/30 01:30:03;;;;;;;6.45;3.25;;;8.40;66.50;;;;;;5071649;28;27473;-60
2021/03/30 01:32:49;;;;;;;7.10;3.03;;;8.40;66.60;;;;;;5105882;28;27352;-61
2021/03/30 01:35:33;;;;;;;6.40;3.40;;;8.30;66.60;;;;;;5106390;28;27429;-61
2021/03/30 01:38:18;;;;;;;7.28;3.35;;;8.30;66.60;;;;;;5077188;28;27375;-61
2021/03/30 01:41:02;;;;;;;7.82;3.10;;;8.30;66.60;;;;;;5091138;28;27407;-60
2021/03/30 01:43:46;;;;;;;5.65;3.25;;;8.20;66.50;;;;;;5090839;28;27441;-62
2021/03/30 01:46:31;;;;;;;5.00;2.67;;;8.20;66.50;;;;;;5091018;28;27433;-61
2021/03/30 01:49:17;;;;;;;3.88;2.83;;;8.20;66.60;;;;;;5091159;28;27424;-61
2021/03/30 01:52:02;;;;;;;4.18;2.97;;;8.10;66.60;;;;;;5106319;28;27328;-61
2021/03/30 01:54:48;;;;;;;3.80;3.03;;;8.10;66.80;;;;;;5106038;28;27448;-61
2021/03/30 01:57:33;;;;;;;8.45;3.33;;;8.10;66.70;;;;;;5106334;28;27371;-61
2021/03/30 02:00:18;;;;;;;8.38;3.67;;;8.10;66.90;;;;;;5090312;28;27367;-61
2021/03/30 02:03:04;;;;;;;7.32;3.13;;;8.00;66.70;;;;;;5090667;28;27391;-60
2021/03/30 02:05:48;;;;;;;4.80;3.22;;;8.00;66.60;;;;;;5090966;28;27353;-61
2021/03/30 02:08:33;;;;;;;6.35;3.22;;;8.00;66.70;;;;;;5091078;28;27405;-60
2021/03/30 02:11:29;;;;;;;6.32;3.08;;;7.90;66.80;;;;;;5091076;28;27383;-61
2021/03/30 02:14:13;;;;;;;9.95;2.88;;;7.90;66.80;;;;;;5105972;28;27362;-61
2021/03/30 02:17:23;;;;;;;7.32;3.25;;;7.90;66.90;;;;;;5104958;28;27419;-61
2021/03/30 02:20:15;;;;;;;4.78;3.03;;;7.90;66.80;;;;;;5075591;28;27321;-61
2021/03/30 02:23:19;;;;;;;7.65;3.63;;;7.80;66.90;;;;;;5105907;28;27391;-61
2021/03/30 02:26:04;;;;;;;7.75;3.38;;;7.80;67.00;;;;;;5105102;28;27861;-61
2021/03/30 02:28:53;;;;;;;5.30;3.28;;;7.70;67.00;;;;;;5105736;28;27396;-60
2021/03/30 02:31:38;;;;;;;5.57;3.08;;;7.70;67.00;;;;;;5090999;28;27420;-60
2021/03/30 02:34:24;;;;;;;3.33;2.67;;;7.70;67.10;;;;;;5105674;28;27468;-60
2021/03/30 06:47:19;;;;;;;8.95;3.85;;;7.40;67.50;;;;;;5142785;27;27488;-62
2021/03/30 06:50:09;;;;;;;4.93;3.53;;;7.60;67.00;;;;;;5142855;27;27389;-62
2021/03/30 06:52:55;;;;;;;6.53;3.42;;;7.80;66.80;;;;;;5142399;27;27418;-61
2021/03/30 06:55:52;;;;;;;7.63;3.75;;;8.00;66.90;;;;;;5142299;27;27435;-61
2021/03/30 06:58:56;;;;;;;4.53;3.42;;;8.20;66.90;;;;;;5142313;27;27438;-61
2021/03/30 07:01:42;;;;;;;4.38;3.17;;;8.70;65.70;;;;;;5127088;27;27481;-61
2021/03/30 07:04:27;;;;;;;5.50;3.65;;;9.30;64.10;;;;;;5127190;27;26925;-61
2021/03/30 07:07:12;;;;;;;4.95;3.33;;;9.90;62.30;;;;;;5123561;27;27470;-61
2021/03/30 07:09:56;;;;;;;5.03;3.08;;;10.80;60.70;;;;;;5126766;27;27482;-61
2021/03/30 07:12:41;;;;;;;7.25;3.45;;;11.80;59.10;;;;;;5141896;27;27447;-61
2021/03/30 07:15:26;;;;;;;7.05;3.70;;;12.70;57.00;;;;;;5142438;27;27477;-61
2021/03/30 07:18:42;;;;;;;4.75;2.60;;;13.50;55.20;;;;;;5126569;27;27481;-61
2021/03/30 07:21:35;;;;;;;7.47;3.00;;;14.40;53.40;;;;;;5123371;27;27478;-62
2021/03/30 07:24:25;;;;;;;5.43;3.28;;;15.20;52.80;;;;;;5127817;27;27442;-61
2021/03/30 07:27:14;;;;;;;6.93;3.67;;;15.90;51.80;;;;;;5126790;27;27347;-62
2021/03/30 07:29:59;;;;;;;5.05;3.15;;;16.60;50.90;;;;;;5126920;27;27613;-61
2021/03/30 07:33:10;;;;;;;4.90;3.15;;;17.20;50.20;;;;;;5123275;27;27407;-61
2021/03/30 07:35:57;;;;;;;3.90;2.67;;;17.80;49.40;;;;;;5129182;27;27384;-61
2021/03/30 07:38:45;;;;;;;4.88;2.75;;;18.40;48.50;;;;;;5138209;27;27340;-61
2021/03/30 07:41:30;;;;;;;6.43;2.97;;;19.00;48.10;;;;;;5141514;27;27832;-61
2021/03/30 07:44:14;;;;;;;7.40;2.80;;;19.50;46.70;;;;;;5140777;27;27473;-61
2021/03/30 07:46:59;;;;;;;4.63;2.60;;;19.90;46.10;;;;;;5108799;27;27439;-61
2021/03/30 07:49:45;;;;;;;8.70;3.10;;;20.40;45.60;;;;;;5126505;27;27506;-61
2021/03/30 07:52:30;;;;;;;6.60;2.53;;;20.80;45.10;;;;;;5141834;27;27407;-61
2021/03/30 07:55:25;;;;;;;5.25;2.92;;;21.20;44.20;;;;;;5098915;27;27424;-61
2021/03/30 07:58:12;;;;;;;4.80;3.10;;;21.60;43.50;;;;;;5127679;27;27479;-61
2021/03/30 08:00:57;;;;;;;5.30;2.90;;;22.10;42.70;;;;;;5127538;27;27484;-61
2021/03/30 08:03:43;;;;;;;3.33;2.63;;;22.60;41.90;;;;;;5097463;27;27467;-61
2021/03/30 08:06:30;;;;;;;8.43;2.55;;;23.00;41.00;;;;;;5097939;27;27411;-61
2021/03/30 08:09:17;;;;;;;3.95;3.08;;;23.40;40.20;;;;;;5124424;27;26885;-61
2021/03/30 08:12:02;;;;;;;6.43;3.17;;;23.70;39.60;;;;;;5127322;27;27423;-61
2021/03/30 08:14:47;;;;;;;6.63;3.45;;;24.00;39.30;;;;;;5127240;27;27371;-61
2021/03/30 08:17:34;;;;;;;4.75;2.78;;;24.40;39.20;;;;;;5112046;27;27407;-61
2021/03/30 08:20:23;;;;;;;6.75;3.38;;;24.80;38.30;;;;;;5127277;27;27497;-61
2021/03/30 08:23:11;;;;;;;6.00;3.10;;;25.10;37.50;;;;;;5127269;27;27457;-61
2021/03/30 08:26:19;;;;;;;6.57;3.33;;;25.50;37.20;;;;;;5127060;27;27914;-61
2021/03/30 08:29:05;;;;;;;6.47;3.50;;;25.90;36.30;;;;;;5127249;27;27527;-61
2021/03/30 08:31:51;;;;;;;5.75;3.58;;;26.30;35.80;;;;;;5123730;27;27411;-61
2021/03/30 08:34:42;;;;;;;7.97;3.58;;;26.60;34.90;;;;;;5126779;27;27445;-61
2021/03/30 08:37:31;;;;;;;8.05;3.40;;;27.00;34.70;;;;;;5126908;27;27369;-61
2021/03/30 08:40:42;;;;;;;11.80;3.92;;;27.40;34.30;;;;;;5083394;27;27476;-61
2021/03/30 08:43:26;;;;;;;6.88;3.45;;;27.80;33.40;;;;;;5124405;27;27372;-61
2021/03/30 08:46:13;;;;;;;6.82;3.58;;;28.10;32.90;;;;;;5126825;27;27325;-61
2021/03/30 08:48:57;;;;;;;4.85;3.40;;;28.40;32.60;;;;;;5126989;27;27352;-61
2021/03/30 08:51:42;;;;;;;7.18;4.10;;;28.60;32.40;;;;;;5111747;27;27391;-61
2021/03/30 08:54:31;;;;;;;6.28;3.38;;;28.90;32.00;;;;;;5108483;27;27426;-61
2021/03/30 08:57:20;;;;;;;6.03;3.40;;;29.20;32.00;;;;;;5126828;27;27461;-61
2021/03/30 09:00:12;;;;;;;7.75;3.55;;;29.50;31.90;;;;;;5126839;27;27923;-61
2021/03/30 09:03:05;;;;;;;7.75;3.70;;;29.70;31.70;;;;;;5123349;27;27469;-61
2021/03/30 09:05:50;;;;;;;5.47;3.28;;;30.00;31.50;;;;;;5122410;27;27387;-60
2021/03/30 09:08:39;;;;;;;4.80;3.45;;;30.30;31.30;;;;;;5096798;27;27477;-61
2021/03/30 09:11:25;;;;;;;8.57;3.22;;;30.50;31.00;;;;;;5123066;27;27348;-61
2021/03/30 09:14:10;;;;;;;5.43;3.45;;;30.80;30.90;;;;;;5126323;27;27383;-61
2021/03/30 09:17:06;;;;;;;7.07;2.95;;;31.10;30.40;;;;;;5111534;27;27410;-61
2021/03/30 09:19:51;;;;;;;6.70;3.15;;;31.30;30.40;;;;;;5110784;27;27339;-61
2021/03/30 09:22:40;;;;;;;10.45;3.63;;;31.50;30.00;;;;;;5126635;27;27331;-60
2021/03/30 09:28:20;;;;;;;5.53;2.97;;;31.90;29.80;;;;;;5111444;27;27340;-60
2021/03/30 09:31:05;;;;;;;5.95;2.97;;;32.10;29.80;;;;;;5125987;27;27466;-61
2021/03/30 09:33:50;;;;;;;3.95;2.67;;;32.30;29.60;;;;;;5107256;27;27412;-61
2021/03/30 09:36:46;;;;;;;4.68;2.80;;;32.50;29.70;;;;;;5110636;27;27478;-61
2021/03/30 09:39:33;;;;;;;4.85;3.00;;;32.70;29.60;;;;;;5125960;27;27450;-61
2021/03/30 09:42:18;;;;;;;4.38;2.40;;;32.90;29.30;;;;;;5111055;27;27424;-61
2021/03/30 09:45:03;;;;;;;5.00;3.20;;;33.10;29.40;;;;;;5125995;27;27454;-61
2021/03/30 09:47:48;;;;;;;4.32;2.85;;;33.30;29.00;;;;;;5125953;27;27561;-60
2021/03/30 09:50:32;;;;;;;4.97;2.67;;;33.50;29.30;;;;;;5126026;27;27477;-61
2021/03/30 09:53:17;;;;;;;7.57;2.80;;;33.80;28.60;;;;;;5106821;27;27466;-60
2021/03/30 09:56:02;;;;;;;3.38;2.63;;;34.00;28.40;;;;;;5125480;27;28055;-60
2021/03/30 09:58:47;;;;;;;9.35;3.97;;;34.20;28.20;;;;;;5110478;27;27451;-60
2021/03/30 10:01:31;;;;;;;7.30;4.75;;;34.00;24.20;;;;;;5092507;27;27426;-60
2021/03/30 10:04:16;;;;;;;9.98;5.13;;;33.40;23.40;;;;;;5125750;27;27514;-61
2021/03/30 10:07:12;;;;;;;5.63;4.07;;;32.70;23.30;;;;;;5095577;27;27977;-58
2021/03/30 10:10:03;;;;;;;9.18;4.20;;;32.30;24.00;;;;;;5111717;27;27443;-61
2021/03/30 10:12:50;;;;;;;5.65;3.90;;;32.10;23.60;;;;;;5125128;27;27413;-59
2021/03/30 10:15:43;;;;;;;17.55;4.07;;;31.90;24.10;;;;;;5125500;27;27458;-57
2021/03/30 10:18:28;;;;;;;16.13;3.80;;;32.10;25.30;;;;;;5096115;27;27419;-59
2021/03/30 10:21:18;;;;;;;15.98;4.53;;;32.70;26.40;;;;;;5109912;27;27399;-58
2021/03/30 10:24:10;;;;;;;17.25;3.92;;;33.20;24.70;;;;;;5107247;27;27428;-59
2021/03/30 10:27:10;;;;;;;12.73;4.30;;;33.20;24.50;;;;;;5106780;27;27463;-58
2021/03/30 10:29:56;;;;;;;9.52;4.20;;;33.30;24.00;;;;;;5125150;27;27331;-58
2021/03/30 10:32:51;;;;;;;8.80;3.72;;;33.20;24.40;;;;;;5124898;27;27330;-59
2021/03/30 10:35:36;;;;;;;8.00;3.72;;;33.30;24.40;;;;;;5125318;27;27361;-57
2021/03/30 10:38:21;;;;;;;7.28;3.83;;;33.40;24.30;;;;;;5125464;27;27322;-58
2021/03/30 10:41:10;;;;;;;6.20;3.58;;;33.50;23.70;;;;;;5125116;27;27402;-58
2021/03/30 10:43:58;;;;;;;8.32;3.58;;;33.50;23.90;;;;;;5124426;27;27396;-57
2021/03/30 10:46:47;;;;;;;10.63;3.63;;;33.70;24.00;;;;;;5125458;27;27478;-58
2021/03/30 10:49:32;;;;;;;11.77;4.43;;;33.80;23.50;;;;;;5124808;27;27413;-59
2021/03/30 10:52:19;;;;;;;10.65;3.88;;;33.60;25.30;;;;;;5109782;27;27332;-60
2021/03/30 10:55:07;;;;;;;13.35;4.25;;;33.40;24.70;;;;;;5091783;27;27712;-61
2021/03/30 10:57:53;;;;;;;11.57;4.05;;;33.70;26.20;;;;;;5124939;27;27431;-60
2021/03/30 11:00:38;;;;;;;12.65;4.20;;;34.00;23.40;;;;;;5109951;27;27435;-60
2021/03/30 11:03:23;;;;;;;18.73;4.22;;;33.60;24.00;;;;;;5124501;27;27437;-61
2021/03/30 11:06:07;;;;;;;9.18;3.53;;;33.40;25.80;;;;;;5124857;27;27465;-60
2021/03/30 11:08:52;;;;;;;16.13;4.07;;;34.00;26.80;;;;;;5109407;27;27507;-60
2021/03/30 11:11:36;;;;;;;15.75;3.50;;;34.80;27.40;;;;;;5124961;27;27412;-61
2021/03/30 11:14:21;;;;;;;11.07;4.68;;;35.40;27.70;;;;;;5124458;27;27445;-60
2021/03/30 11:17:06;;;;;;;10.98;3.05;;;36.00;27.90;;;;;;5124388;27;27484;-61
2021/03/30 11:19:51;;;;;;;18.75;4.25;;;36.50;28.90;;;;;;5108769;27;27435;-61
2021/03/30 11:22:35;;;;;;;8.32;3.03;;;36.90;28.00;;;;;;5124539;27;27453;-61
2021/03/30 11:25:20;;;;;;;8.68;2.80;;;37.10;27.90;;;;;;5124729;27;27470;-61
2021/03/30 11:28:09;;;;;;;5.72;2.45;;;37.40;28.60;;;;;;5124538;27;27439;-61
2021/03/30 11:31:00;;;;;;;6.35;2.63;;;37.60;27.90;;;;;;5128300;27;27418;-65
2021/03/30 11:33:50;;;;;;;10.63;2.40;;;37.80;28.00;;;;;;5127461;27;27443;-60
2021/03/30 11:36:39;;;;;;;5.38;2.42;;;37.90;27.70;;;;;;5127754;27;27352;-60
2021/03/30 11:39:24;;;;;;;7.65;2.47;;;38.10;27.70;;;;;;5127804;27;27404;-59
2021/03/30 11:42:09;;;;;;;4.28;1.88;;;38.20;27.80;;;;;;5124569;27;27371;-59
2021/03/30 11:44:54;;;;;;;5.25;2.30;;;38.30;27.70;;;;;;5127036;27;27344;-58
2021/03/30 11:47:38;;;;;;;4.70;2.25;;;38.40;27.50;;;;;;5127763;27;27340;-59
2021/03/30 11:50:23;;;;;;;7.30;2.08;;;38.50;27.70;;;;;;5124309;27;27567;-61
2021/03/30 11:53:07;;;;;;;4.18;2.28;;;38.60;27.20;;;;;;5127537;27;27348;-59
2021/03/30 11:55:52;;;;;;;5.40;2.13;;;38.60;27.80;;;;;;5127901;27;27349;-59
2021/03/30 11:58:37;;;;;;;5.85;1.90;;;38.60;28.00;;;;;;5127759;27;28048;-58
2021/03/30 12:01:22;;;;;;;2.63;1.60;;;38.50;27.60;;;;;;5127694;27;27405;-59
2021/03/30 12:04:06;;;;;;;5.68;2.05;;;38.50;27.80;;;;;;5112057;27;27426;-61
2021/03/30 12:06:53;;;;;;;5.43;1.90;;;38.50;27.40;;;;;;5127682;27;27312;-61
2021/03/30 12:09:37;;;;;;;8.00;1.90;;;38.60;27.20;;;;;;5124072;27;27352;-61
2021/03/30 12:12:22;;;;;;;5.57;1.70;;;38.60;27.20;;;;;;5108698;27;27409;-61
2021/03/30 12:15:08;;;;;;;6.20;2.25;;;38.70;27.90;;;;;;5124361;27;27396;-62
2021/03/30 12:17:53;;;;;;;4.45;1.63;;;38.70;27.90;;;;;;5127252;27;27413;-59
2021/03/30 12:20:38;;;;;;;7.43;1.65;;;38.80;27.50;;;;;;5127425;27;27992;-59
2021/03/30 12:23:23;;;;;;;3.10;1.40;;;38.80;27.40;;;;;;5127347;27;27475;-59
2021/03/30 12:26:08;;;;;;;3.67;1.42;;;38.90;26.90;;;;;;5127180;27;27349;-59
2021/03/30 12:28:52;;;;;;;4.18;1.80;;;38.90;25.90;;;;;;5127419;27;27394;-58
2021/03/30 12:31:37;;;;;;;4.57;1.60;;;38.90;25.30;;;;;;5127041;27;27364;-59
2021/03/30 12:34:21;;;;;;;2.50;1.50;;;38.80;26.00;;;;;;5127011;27;27385;-60
2021/03/30 12:37:06;;;;;;;4.03;1.48;;;38.80;25.50;;;;;;5126977;27;27414;-60
2021/03/30 12:39:50;;;;;;;2.90;1.23;;;38.80;25.80;;;;;;5124027;27;27324;-61
2021/03/30 12:42:35;;;;;;;3.88;1.55;;;38.80;26.40;;;;;;5123738;27;28031;-63
2021/03/30 12:45:19;;;;;;;3.25;1.55;;;38.80;26.90;;;;;;5127090;27;27391;-61
2021/03/30 12:48:05;;;;;;;4.70;1.50;;;38.80;27.30;;;;;;5127205;27;27380;-61
2021/03/30 12:50:49;;;;;;;3.35;1.45;;;38.70;26.70;;;;;;5126788;27;27353;-61
2021/03/30 12:53:35;;;;;;;1.85;1.15;;;38.70;27.50;;;;;;5126762;27;27418;-61
2021/03/30 12:56:19;;;;;;;2.05;1.00;;;38.60;28.00;;;;;;5123322;27;27378;-61
2021/03/30 12:59:04;;;;;;;2.25;1.25;;;38.60;27.40;;;;;;5126712;27;27423;-61
2021/03/30 13:01:48;;;;;;;2.33;1.50;;;38.60;27.60;;;;;;5126623;27;27419;-59
2021/03/30 13:04:33;;;;;;;1.20;1.10;;;38.60;27.50;;;;;;5126834;27;27468;-63
2021/03/30 13:07:18;;;;;;;4.45;1.67;;;38.60;27.70;;;;;;5126554;27;27600;-63
2021/03/30 13:10:04;;;;;;;1.67;1.27;;;38.60;27.70;;;;;;5123492;27;27384;-61
2021/03/30 13:12:48;;;;;;;1.33;1.23;;;38.50;27.70;;;;;;5126209;27;27348;-60
2021/03/30 13:15:33;;;;;;;4.75;1.40;;;38.50;27.60;;;;;;5126594;27;27477;-60
2021/03/30 13:18:17;;;;;;;2.35;1.40;;;38.40;27.40;;;;;;5110919;27;27478;-62
2021/03/30 13:21:02;;;;;;;4.03;1.27;;;38.20;27.40;;;;;;5123230;27;27426;-61
2021/03/30 13:23:46;;;;;;;2.95;1.70;;;38.10;27.90;;;;;;5126467;27;27472;-60
2021/03/30 13:26:31;;;;;;;3.83;1.13;;;37.80;27.90;;;;;;5126082;27;27514;-60
2021/03/30 13:29:16;;;;;;;4.90;1.65;;;37.60;28.10;;;;;;5126258;27;27428;-62
2021/03/30 13:32:01;;;;;;;2.63;1.30;;;37.40;28.30;;;;;;5126068;27;27431;-61
2021/03/30 13:34:47;;;;;;;2.60;1.25;;;37.30;28.70;;;;;;5126072;27;27450;-61
2021/03/30 13:37:31;;;;;;;3.00;1.35;;;37.10;29.10;;;;;;5125616;27;27527;-62
2021/03/30 13:40:17;;;;;;;5.57;1.65;;;36.90;29.10;;;;;;5107602;27;27480;-62
2021/03/30 13:43:02;;;;;;;6.70;1.95;;;36.80;29.60;;;;;;5125754;27;27482;-60
2021/03/30 13:45:47;;;;;;;4.55;1.85;;;36.80;28.90;;;;;;5122912;27;27410;-61
2021/03/30 13:48:31;;;;;;;2.08;1.40;;;36.80;27.50;;;;;;5107200;27;27469;-60
2021/03/30 13:51:16;;;;;;;5.15;1.70;;;36.70;29.10;;;;;;5125472;27;27411;-61
2021/03/30 13:54:00;;;;;;;2.13;1.58;;;36.70;28.40;;;;;;5125861;27;27448;-61
2021/03/30 13:56:45;;;;;;;2.83;1.55;;;36.70;27.80;;;;;;5119325;27;27457;-60
2021/03/30 13:59:29;;;;;;;4.20;1.73;;;36.60;28.80;;;;;;5105165;28;27458;-60
2021/03/30 14:02:14;;;;;;;7.90;1.65;;;36.50;28.20;;;;;;5104700;28;27480;-61
2021/03/30 14:04:59;;;;;;;3.80;1.70;;;36.40;28.60;;;;;;5105455;28;27384;-60
2021/03/30 14:07:44;;;;;;;8.73;1.80;;;36.50;29.50;;;;;;5105420;28;27320;-61
2021/03/30 14:10:28;;;;;;;3.75;1.70;;;36.40;29.70;;;;;;5105203;28;27310;-60
2021/03/30 14:13:19;;;;;;;2.97;1.70;;;36.50;29.00;;;;;;5101704;28;27318;-60
2021/03/30 14:16:18;;;;;;;12.10;2.08;;;36.50;28.50;;;;;;5104930;28;27456;-61
2021/03/30 14:20:05;;;;;;;4.95;1.83;;;36.50;27.60;;;;;;5104872;28;27369;-61
2021/03/30 14:22:23;;;;;;;5.40;1.40;;;36.50;28.60;;;;;;5098964;28;27582;-60
2021/03/30 14:25:26;;;;;;;2.47;1.60;;;36.50;29.00;;;;;;5086494;28;27483;-60
2021/03/30 14:28:11;;;;;;;3.90;1.45;;;36.50;29.40;;;;;;5104727;28;27423;-60
2021/03/30 14:30:55;;;;;;;1.95;1.30;;;36.40;27.20;;;;;;5104487;28;27689;-59
2021/03/30 14:33:40;;;;;;;11.55;2.33;;;36.30;27.10;;;;;;5086182;28;27487;-60
2021/03/30 14:36:24;;;;;;;19.88;2.67;;;36.20;27.90;;;;;;5075114;28;27412;-59
2021/03/30 14:39:10;;;;;;;30.10;4.22;;;36.20;28.40;;;;;;5089567;28;27355;-60
2021/03/30 14:42:02;;;;;;;22.73;2.58;;;36.00;27.90;;;;;;5104790;28;27467;-60
2021/03/30 14:53:54;;;;;;;9.07;2.78;;;35.20;23.00;;;;;;5104055;28;27415;-60
2021/03/30 14:56:47;;;;;;;5.35;1.98;;;34.70;23.80;;;;;;5090885;28;27443;-60
2021/03/30 14:59:37;;;;;;;6.00;1.80;;;34.50;23.90;;;;;;5076216;28;27407;-60
2021/03/30 15:05:24;;;;;;;5.65;2.03;;;34.30;26.50;;;;;;5107424;28;27419;-60
2021/03/30 15:08:09;;;;;;;3.75;1.83;;;34.20;28.00;;;;;;5108090;28;27332;-60
2021/03/30 15:10:56;;;;;;;4.63;1.63;;;34.10;28.10;;;;;;5107750;28;27400;-61
2021/03/30 15:13:41;;;;;;;2.83;1.48;;;34.00;29.40;;;;;;5107544;28;27487;-60
2021/03/30 15:16:25;;;;;;;3.85;1.55;;;33.90;30.00;;;;;;5107995;28;27446;-62
2021/03/30 15:19:10;;;;;;;5.38;1.70;;;33.80;30.60;;;;;;5107827;28;27449;-60
2021/03/30 15:21:55;;;;;;;8.05;1.70;;;33.70;31.10;;;;;;5107518;28;27544;-60
2021/03/30 15:24:39;;;;;;;2.00;1.17;;;33.60;31.70;;;;;;5107363;28;27372;-62
2021/03/30 15:27:24;;;;;;;6.95;1.30;;;33.50;30.80;;;;;;5107497;28;27385;-61
2021/03/30 15:30:10;;;;;;;3.25;1.10;;;33.30;31.80;;;;;;5092227;28;27379;-60
2021/03/30 15:32:55;;;;;;;4.15;1.23;;;33.20;32.90;;;;;;5107217;28;27470;-62
2021/03/30 15:35:39;;;;;;;3.90;1.77;;;33.10;31.80;;;;;;5107503;28;27508;-60
2021/03/30 15:38:24;;;;;;;4.43;1.50;;;32.90;30.90;;;;;;5107673;28;27384;-61
2021/03/30 15:41:09;;;;;;;7.20;1.50;;;32.80;30.00;;;;;;5107608;28;27333;-60
2021/03/30 15:44:00;;;;;;;3.13;1.52;;;32.60;31.90;;;;;;5091424;28;27550;-60
2021/03/30 15:49:48;;;;;;;6.40;1.80;;;32.20;32.60;;;;;;5094743;28;26905;-60
2021/03/30 15:52:34;;;;;;;4.60;1.60;;;32.10;30.20;;;;;;5107041;28;27466;-63
2021/03/30 15:55:19;;;;;;;4.43;1.70;;;31.90;29.80;;;;;;5107376;28;27413;-60
2021/03/30 15:58:03;;;;;;;4.80;1.98;;;31.70;31.20;;;;;;5107172;28;27490;-60
2021/03/30 16:00:48;;;;;;;2.90;1.60;;;31.40;31.50;;;;;;5104038;28;27449;-60
2021/03/30 16:03:32;;;;;;;3.38;1.48;;;31.20;31.70;;;;;;5103737;28;27949;-60
2021/03/30 16:06:17;;;;;;;4.38;2.00;;;31.10;32.40;;;;;;5103673;28;27458;-60
2021/03/30 16:09:01;;;;;;;3.60;1.50;;;30.80;32.00;;;;;;5107298;28;27396;-60
2021/03/30 16:11:45;;;;;;;5.95;2.00;;;30.60;33.20;;;;;;5106889;28;27407;-60
2021/03/30 16:14:30;;;;;;;6.20;1.65;;;30.40;31.60;;;;;;5091101;27;27470;-61
2021/03/30 16:17:14;;;;;;;6.80;1.90;;;30.10;33.60;;;;;;5107032;28;27498;-60
2021/03/30 16:19:59;;;;;;;5.22;2.03;;;29.90;34.60;;;;;;5107081;28;27361;-60
2021/03/30 16:22:44;;;;;;;2.80;1.92;;;29.70;35.30;;;;;;5106207;28;27418;-60
2021/03/30 16:25:30;;;;;;;6.80;2.60;;;29.40;35.20;;;;;;5106857;28;27357;-60
2021/03/30 16:28:18;;;;;;;8.02;1.67;;;29.20;34.50;;;;;;5106794;28;27416;-60
2021/03/30 16:31:02;;;;;;;6.95;2.15;;;28.90;34.00;;;;;;5106896;28;27465;-59
2021/03/30 16:33:49;;;;;;;3.80;1.83;;;28.60;34.10;;;;;;5106436;28;27391;-60
2021/03/30 16:36:33;;;;;;;4.38;1.90;;;28.40;34.20;;;;;;5106603;28;27399;-62
2021/03/30 16:39:18;;;;;;;15.02;2.30;;;28.20;34.40;;;;;;5106646;28;27404;-61
2021/03/30 16:42:03;;;;;;;7.55;2.22;;;27.90;34.90;;;;;;5087999;28;27522;-60
2021/03/30 16:44:48;;;;;;;6.20;2.00;;;27.60;35.40;;;;;;5105746;28;27601;-60
2021/03/30 16:47:32;;;;;;;7.20;2.60;;;27.40;36.10;;;;;;5106055;28;27444;-60
2021/03/30 16:50:18;;;;;;;4.97;2.00;;;27.20;36.40;;;;;;5091286;28;27436;-60
2021/03/30 16:53:03;;;;;;;7.65;2.10;;;27.00;36.80;;;;;;5087662;28;27435;-60
2021/03/30 16:55:47;;;;;;;12.40;2.05;;;26.70;37.20;;;;;;5106415;28;27388;-60
2021/03/30 16:58:31;;;;;;;5.28;2.03;;;26.50;37.30;;;;;;5105851;28;27419;-61
2021/03/30 17:01:17;;;;;;;6.72;1.95;;;26.30;37.70;;;;;;5106212;28;27482;-60
2021/03/30 17:04:02;;;;;;;3.28;1.83;;;26.00;38.10;;;;;;5106317;28;27450;-60
2021/03/30 17:06:46;;;;;;;6.70;1.80;;;25.80;38.70;;;;;;5105951;28;27407;-60
2021/03/30 17:09:30;;;;;;;7.75;2.50;;;25.60;39.30;;;;;;5106189;28;27443;-60
2021/03/30 17:12:15;;;;;;;4.60;1.98;;;25.40;39.30;;;;;;5105749;28;27561;-60
2021/03/30 17:15:00;;;;;;;2.03;1.35;;;25.10;39.90;;;;;;5090756;28;27440;-60
2021/03/30 17:17:44;;;;;;;4.90;1.77;;;24.90;40.40;;;;;;5090869;28;27503;-60
2021/03/30 17:20:29;;;;;;;5.93;1.83;;;24.70;40.40;;;;;;5105663;28;27329;-60
2021/03/30 17:23:14;;;;;;;3.70;1.48;;;24.50;40.50;;;;;;5106004;28;27541;-60
2021/03/30 17:25:59;;;;;;;3.38;1.50;;;24.20;41.30;;;;;;5105719;27;27405;-60
2021/03/30 17:28:44;;;;;;;4.78;1.65;;;24.10;42.10;;;;;;5090558;28;27366;-60
2021/03/30 17:31:28;;;;;;;4.95;2.05;;;23.80;42.80;;;;;;5105942;28;27860;-60
2021/03/30 17:34:13;;;;;;;2.50;1.20;;;23.60;43.00;;;;;;5090120;28;27606;-60
2021/03/30 17:36:58;;;;;;;4.32;1.92;;;23.30;44.10;;;;;;5102513;28;27312;-60
2021/03/30 17:39:42;;;;;;;4.00;1.80;;;23.10;44.20;;;;;;5090635;28;27412;-61
2021/03/30 17:42:27;;;;;;;3.28;1.63;;;22.90;44.70;;;;;;5104888;28;27877;-62
2021/03/30 17:45:13;;;;;;;2.63;1.77;;;22.70;45.20;;;;;;5090427;28;27435;-60
2021/03/30 17:47:57;;;;;;;3.75;1.73;;;22.50;45.60;;;;;;5105620;28;27362;-61
2021/03/30 17:50:42;;;;;;;4.32;1.67;;;22.20;45.50;;;;;;5105276;28;27393;-60
2021/03/30 17:53:26;;;;;;;4.13;1.80;;;22.10;46.10;;;;;;5105016;28;27340;-61
2021/03/30 17:56:11;;;;;;;1.90;1.40;;;21.80;47.10;;;;;;5105119;28;27332;-61
2021/03/30 17:58:55;;;;;;;6.95;2.28;;;21.70;47.40;;;;;;5105474;28;27387;-60
2021/03/30 18:01:40;;;;;;;2.40;1.70;;;21.50;47.60;;;;;;5105459;28;27315;-60
2021/03/30 18:04:24;;;;;;;4.00;1.77;;;21.30;48.10;;;;;;5086854;28;27412;-60
2021/03/30 18:07:09;;;;;;;6.47;1.80;;;21.20;48.80;;;;;;5104950;28;27435;-61
2021/03/30 18:09:54;;;;;;;4.72;1.80;;;21.00;49.50;;;;;;5088002;28;27444;-60
2021/03/30 18:12:39;;;;;;;5.15;1.80;;;20.80;49.90;;;;;;5104864;28;27419;-60
2021/03/30 18:15:24;;;;;;;3.08;1.75;;;20.60;50.40;;;;;;5104883;28;27478;-60
2021/03/30 18:18:09;;;;;;;4.38;1.75;;;20.50;51.20;;;;;;5105062;28;27531;-60
2021/03/30 18:20:56;;;;;;;2.00;1.20;;;20.30;51.30;;;;;;5105030;28;27482;-61
2021/03/30 18:23:41;;;;;;;12.77;3.63;;;20.10;51.70;;;;;;5090212;28;27502;-61
2021/03/30 18:26:25;;;;;;;7.35;2.17;;;20.00;51.90;;;;;;5105019;28;27310;-63
2021/03/30 18:29:14;;;;;;;2.95;1.73;;;19.80;51.90;;;;;;5104675;28;27421;-61
2021/03/30 18:31:58;;;;;;;3.67;1.60;;;19.70;52.30;;;;;;5104938;28;27402;-61
2021/03/30 18:34:43;;;;;;;1.80;1.27;;;19.50;52.80;;;;;;5104608;28;27344;-61
2021/03/30 18:37:28;;;;;;;4.82;1.77;;;19.40;53.30;;;;;;5104114;28;27933;-61
2021/03/30 18:40:13;;;;;;;5.13;1.50;;;19.20;53.50;;;;;;5089814;28;27448;-61
2021/03/30 18:42:58;;;;;;;4.40;2.20;;;19.10;54.00;;;;;;5104303;28;27387;-61
2021/03/30 18:45:43;;;;;;;3.35;2.08;;;18.90;54.20;;;;;;5104406;28;27341;-61
2021/03/30 18:48:27;;;;;;;7.35;1.80;;;18.80;54.40;;;;;;5104359;28;27400;-61
2021/03/30 18:51:12;;;;;;;6.25;1.88;;;18.70;55.10;;;;;;5101354;28;27341;-61
2021/03/30 18:53:56;;;;;;;4.38;2.17;;;18.50;55.10;;;;;;5104088;28;26955;-61
2021/03/30 18:56:40;;;;;;;6.32;2.45;;;18.40;55.40;;;;;;5101101;28;27335;-62
2021/03/30 18:59:27;;;;;;;2.72;1.83;;;18.30;55.50;;;;;;5086163;28;27364;-61